sensor_id;sensor_type;location;lat;lon;timestamp;temperature;humidity
63219;DHT22;49320;52.512;13.448;2022-09-09T00:02:32;18.90;89.50
63219;DHT22;49320;52.512;13.448;2022-09-09T00:05:17;18.90;90.20
63219;DHT22;49320;52.512;13.448;2022-09-09T00:07:59;18.80;90.20
63219;DHT22;49320;52.512;13.448;2022-09-09T00:10:39;18.80;89.60
63219;DHT22;49320;52.512;13.448;2022-09-09T00:13:51;18.90;90.10
63219;DHT22;49320;52.512;13.448;2022-09-09T00:16:17;18.80;89.40
63219;DHT22;49320;52.512;13.448;2022-09-09T00:19:02;18.80;90.20
63219;DHT22;49320;52.512;13.448;2022-09-09T00:21:37;18.80;90.00
63219;DHT22;49320;52.512;13.448;2022-09-09T00:24:38;18.80;90.00
63219;DHT22;49320;52.512;13.448;2022-09-09T00:27:36;18.70;90.40
63219;DHT22;49320;52.512;13.448;2022-09-09T00:30:19;18.70;90.20
63219;DHT22;49320;52.512;13.448;2022-09-09T00:32:53;18.70;90.00
63219;DHT22;49320;52.512;13.448;2022-09-09T00:35:40;18.70;89.90
63219;DHT22;49320;52.512;13.448;2022-09-09T00:38:18;18.70;90.20
63219;DHT22;49320;52.512;13.448;2022-09-09T00:40:55;18.70;90.10
63219;DHT22;49320;52.512;13.448;2022-09-09T00:43:31;18.60;90.00
63219;DHT22;49320;52.512;13.448;2022-09-09T00:57:39;18.60;90.50
63219;DHT22;49320;52.512;13.448;2022-09-09T01:00:24;18.50;89.90
63219;DHT22;49320;52.512;13.448;2022-09-09T01:08:49;18.50;90.40
63219;DHT22;49320;52.512;13.448;2022-09-09T01:11:27;18.50;90.00
63219;DHT22;49320;52.512;13.448;2022-09-09T01:16:45;18.50;90.40
63219;DHT22;49320;52.512;13.448;2022-09-09T01:19:24;18.40;90.10
63219;DHT22;49320;52.512;13.448;2022-09-09T01:22:10;18.40;90.40
63219;DHT22;49320;52.512;13.448;2022-09-09T01:27:47;18.40;90.60
63219;DHT22;49320;52.512;13.448;2022-09-09T01:30:17;18.40;90.20
63219;DHT22;49320;52.512;13.448;2022-09-09T01:32:47;18.40;90.20
63219;DHT22;49320;52.512;13.448;2022-09-09T01:38:17;18.40;90.60
63219;DHT22;49320;52.512;13.448;2022-09-09T01:40:45;18.30;90.20
63219;DHT22;49320;52.512;13.448;2022-09-09T01:43:12;18.30;90.20
63219;DHT22;49320;52.512;13.448;2022-09-09T01:45:41;18.30;90.20
63219;DHT22;49320;52.512;13.448;2022-09-09T01:48:09;18.30;90.40
63219;DHT22;49320;52.512;13.448;2022-09-09T01:50:35;18.30;90.30
63219;DHT22;49320;52.512;13.448;2022-09-09T01:53:03;18.30;90.30
63219;DHT22;49320;52.512;13.448;2022-09-09T01:55:38;18.30;90.30
63219;DHT22;49320;52.512;13.448;2022-09-09T01:58:26;18.30;90.40
63219;DHT22;49320;52.512;13.448;2022-09-09T02:01:57;18.20;90.30
63219;DHT22;49320;52.512;13.448;2022-09-09T02:04:33;18.20;90.70
63219;DHT22;49320;52.512;13.448;2022-09-09T02:10:01;18.20;90.60
63219;DHT22;49320;52.512;13.448;2022-09-09T02:12:36;18.20;90.50
63219;DHT22;49320;52.512;13.448;2022-09-09T02:18:04;18.10;90.50
63219;DHT22;49320;52.512;13.448;2022-09-09T02:20:37;18.10;90.40
63219;DHT22;49320;52.512;13.448;2022-09-09T02:23:06;18.10;90.50
63219;DHT22;49320;52.512;13.448;2022-09-09T02:25:36;18.10;90.50
63219;DHT22;49320;52.512;13.448;2022-09-09T02:28:08;18.10;90.60
63219;DHT22;49320;52.512;13.448;2022-09-09T02:30:38;18.10;90.60
63219;DHT22;49320;52.512;13.448;2022-09-09T02:33:09;18.10;90.50
63219;DHT22;49320;52.512;13.448;2022-09-09T02:35:39;18.10;90.60
63219;DHT22;49320;52.512;13.448;2022-09-09T02:38:12;18.10;90.50
63219;DHT22;49320;52.512;13.448;2022-09-09T02:40:41;18.00;90.60
63219;DHT22;49320;52.512;13.448;2022-09-09T02:43:08;18.00;90.40
63219;DHT22;49320;52.512;13.448;2022-09-09T02:54:23;18.00;90.40
63219;DHT22;49320;52.512;13.448;2022-09-09T02:57:04;18.00;90.70
63219;DHT22;49320;52.512;13.448;2022-09-09T02:59:37;17.90;90.70
63219;DHT22;49320;52.512;13.448;2022-09-09T03:02:05;17.90;90.50
63219;DHT22;49320;52.512;13.448;2022-09-09T03:04:32;18.00;90.50
63219;DHT22;49320;52.512;13.448;2022-09-09T03:06:59;17.90;90.50
63219;DHT22;49320;52.512;13.448;2022-09-09T03:09:27;17.90;90.50
63219;DHT22;49320;52.512;13.448;2022-09-09T03:11:54;17.90;90.50
63219;DHT22;49320;52.512;13.448;2022-09-09T03:14:22;17.90;90.50
63219;DHT22;49320;52.512;13.448;2022-09-09T03:16:52;17.90;90.60
63219;DHT22;49320;52.512;13.448;2022-09-09T03:19:20;17.80;90.60
63219;DHT22;49320;52.512;13.448;2022-09-09T03:21:47;17.80;90.60
63219;DHT22;49320;52.512;13.448;2022-09-09T03:24:14;17.80;90.60
63219;DHT22;49320;52.512;13.448;2022-09-09T03:26:42;17.80;90.60
63219;DHT22;49320;52.512;13.448;2022-09-09T03:29:12;17.80;90.60
63219;DHT22;49320;52.512;13.448;2022-09-09T03:31:39;17.80;90.70
63219;DHT22;49320;52.512;13.448;2022-09-09T03:34:06;17.80;90.70
63219;DHT22;49320;52.512;13.448;2022-09-09T03:36:33;17.80;90.60
63219;DHT22;49320;52.512;13.448;2022-09-09T03:39:00;17.80;90.60
63219;DHT22;49320;52.512;13.448;2022-09-09T03:41:29;17.80;90.70
63219;DHT22;49320;52.512;13.448;2022-09-09T03:43:56;17.70;90.60
63219;DHT22;49320;52.512;13.448;2022-09-09T03:46:25;17.80;90.60
63219;DHT22;49320;52.512;13.448;2022-09-09T03:48:52;17.80;90.70
63219;DHT22;49320;52.512;13.448;2022-09-09T03:51:19;17.80;90.60
63219;DHT22;49320;52.512;13.448;2022-09-09T03:53:47;17.70;90.60
63219;DHT22;49320;52.512;13.448;2022-09-09T03:56:14;17.70;90.60
63219;DHT22;49320;52.512;13.448;2022-09-09T03:58:41;17.70;90.60
63219;DHT22;49320;52.512;13.448;2022-09-09T04:01:12;17.60;90.60
63219;DHT22;49320;52.512;13.448;2022-09-09T04:03:40;17.70;90.80
63219;DHT22;49320;52.512;13.448;2022-09-09T04:06:09;17.70;90.60
63219;DHT22;49320;52.512;13.448;2022-09-09T04:08:38;17.60;90.60
63219;DHT22;49320;52.512;13.448;2022-09-09T04:11:06;17.60;90.60
63219;DHT22;49320;52.512;13.448;2022-09-09T04:13:34;17.60;90.60
63219;DHT22;49320;52.512;13.448;2022-09-09T04:16:04;17.60;90.70
63219;DHT22;49320;52.512;13.448;2022-09-09T04:18:31;17.60;90.70
63219;DHT22;49320;52.512;13.448;2022-09-09T04:20:58;17.60;90.70
63219;DHT22;49320;52.512;13.448;2022-09-09T04:23:26;17.60;90.70
63219;DHT22;49320;52.512;13.448;2022-09-09T04:25:56;17.60;90.70
63219;DHT22;49320;52.512;13.448;2022-09-09T04:28:27;17.40;90.70
63219;DHT22;49320;52.512;13.448;2022-09-09T04:30:55;17.50;90.80
63219;DHT22;49320;52.512;13.448;2022-09-09T04:33:26;17.40;90.70
63219;DHT22;49320;52.512;13.448;2022-09-09T04:35:53;17.50;90.70
63219;DHT22;49320;52.512;13.448;2022-09-09T04:38:20;17.50;90.70
63219;DHT22;49320;52.512;13.448;2022-09-09T04:40:50;17.50;90.80
63219;DHT22;49320;52.512;13.448;2022-09-09T04:43:18;17.50;90.90
63219;DHT22;49320;52.512;13.448;2022-09-09T04:45:47;17.50;90.80
63219;DHT22;49320;52.512;13.448;2022-09-09T04:48:15;17.50;91.00
63219;DHT22;49320;52.512;13.448;2022-09-09T04:50:42;17.50;90.90
63219;DHT22;49320;52.512;13.448;2022-09-09T04:53:09;17.50;90.90
63219;DHT22;49320;52.512;13.448;2022-09-09T04:55:36;17.50;90.90
63219;DHT22;49320;52.512;13.448;2022-09-09T04:58:07;17.50;91.00
63219;DHT22;49320;52.512;13.448;2022-09-09T05:00:35;17.50;91.20
63219;DHT22;49320;52.512;13.448;2022-09-09T05:03:04;17.50;91.00
63219;DHT22;49320;52.512;13.448;2022-09-09T05:05:33;17.50;91.10
63219;DHT22;49320;52.512;13.448;2022-09-09T05:08:04;17.50;91.10
63219;DHT22;49320;52.512;13.448;2022-09-09T05:10:33;17.50;91.10
63219;DHT22;49320;52.512;13.448;2022-09-09T05:13:01;17.50;91.10
63219;DHT22;49320;52.512;13.448;2022-09-09T05:15:28;17.60;91.10
63219;DHT22;49320;52.512;13.448;2022-09-09T05:18:00;17.60;91.10
63219;DHT22;49320;52.512;13.448;2022-09-09T05:20:27;17.60;91.30
63219;DHT22;49320;52.512;13.448;2022-09-09T05:22:55;17.60;91.10
63219;DHT22;49320;52.512;13.448;2022-09-09T05:25:23;17.60;91.10
63219;DHT22;49320;52.512;13.448;2022-09-09T05:27:52;17.70;91.20
63219;DHT22;49320;52.512;13.448;2022-09-09T05:30:21;17.70;91.10
63219;DHT22;49320;52.512;13.448;2022-09-09T05:32:49;17.70;91.20
63219;DHT22;49320;52.512;13.448;2022-09-09T05:35:16;17.70;91.20
63219;DHT22;49320;52.512;13.448;2022-09-09T05:37:45;17.80;91.20
63219;DHT22;49320;52.512;13.448;2022-09-09T05:40:12;17.80;91.20
63219;DHT22;49320;52.512;13.448;2022-09-09T05:42:39;17.90;91.20
63219;DHT22;49320;52.512;13.448;2022-09-09T05:45:08;17.90;91.10
63219;DHT22;49320;52.512;13.448;2022-09-09T05:47:36;17.80;91.10
63219;DHT22;49320;52.512;13.448;2022-09-09T05:50:04;18.00;91.20
63219;DHT22;49320;52.512;13.448;2022-09-09T05:52:31;18.10;91.20
63219;DHT22;49320;52.512;13.448;2022-09-09T05:54:59;18.10;91.20
63219;DHT22;49320;52.512;13.448;2022-09-09T05:57:26;18.10;91.10
63219;DHT22;49320;52.512;13.448;2022-09-09T05:59:53;18.20;91.00
63219;DHT22;49320;52.512;13.448;2022-09-09T06:02:20;18.20;90.90
63219;DHT22;49320;52.512;13.448;2022-09-09T06:04:47;18.20;90.90
63219;DHT22;49320;52.512;13.448;2022-09-09T06:07:14;18.30;90.80
63219;DHT22;49320;52.512;13.448;2022-09-09T06:09:41;18.50;90.80
63219;DHT22;49320;52.512;13.448;2022-09-09T06:12:08;18.50;91.20
63219;DHT22;49320;52.512;13.448;2022-09-09T06:14:35;18.50;90.80
63219;DHT22;49320;52.512;13.448;2022-09-09T06:17:03;18.60;90.60
63219;DHT22;49320;52.512;13.448;2022-09-09T06:19:30;18.70;90.50
63219;DHT22;49320;52.512;13.448;2022-09-09T06:21:57;18.70;90.40
63219;DHT22;49320;52.512;13.448;2022-09-09T06:24:25;18.70;90.40
63219;DHT22;49320;52.512;13.448;2022-09-09T06:26:51;18.90;90.40
63219;DHT22;49320;52.512;13.448;2022-09-09T06:29:18;18.90;90.20
63219;DHT22;49320;52.512;13.448;2022-09-09T06:31:45;19.00;90.20
63219;DHT22;49320;52.512;13.448;2022-09-09T06:34:12;18.80;90.00
63219;DHT22;49320;52.512;13.448;2022-09-09T06:36:39;19.10;89.80
63219;DHT22;49320;52.512;13.448;2022-09-09T06:39:07;19.20;89.60
63219;DHT22;49320;52.512;13.448;2022-09-09T06:41:40;19.20;89.30
63219;DHT22;49320;52.512;13.448;2022-09-09T06:44:09;19.30;89.30
63219;DHT22;49320;52.512;13.448;2022-09-09T06:46:38;19.30;89.20
63219;DHT22;49320;52.512;13.448;2022-09-09T06:49:07;19.40;88.90
63219;DHT22;49320;52.512;13.448;2022-09-09T06:51:37;19.40;88.60
63219;DHT22;49320;52.512;13.448;2022-09-09T06:54:09;19.50;88.60
63219;DHT22;49320;52.512;13.448;2022-09-09T06:56:39;19.50;88.60
63219;DHT22;49320;52.512;13.448;2022-09-09T06:59:10;19.60;88.70
63219;DHT22;49320;52.512;13.448;2022-09-09T07:01:42;19.70;89.00
63219;DHT22;49320;52.512;13.448;2022-09-09T07:04:21;19.70;89.20
63219;DHT22;49320;52.512;13.448;2022-09-09T07:06:47;19.80;89.00
63219;DHT22;49320;52.512;13.448;2022-09-09T07:09:16;19.80;88.70
63219;DHT22;49320;52.512;13.448;2022-09-09T07:11:50;20.00;88.50
63219;DHT22;49320;52.512;13.448;2022-09-09T07:14:20;20.10;88.20
63219;DHT22;49320;52.512;13.448;2022-09-09T07:16:49;20.00;87.90
63219;DHT22;49320;52.512;13.448;2022-09-09T07:19:16;20.20;87.80
63219;DHT22;49320;52.512;13.448;2022-09-09T07:21:43;20.30;87.80
63219;DHT22;49320;52.512;13.448;2022-09-09T07:24:10;20.30;87.50
63219;DHT22;49320;52.512;13.448;2022-09-09T07:26:39;20.40;87.10
63219;DHT22;49320;52.512;13.448;2022-09-09T07:29:08;20.50;86.60
63219;DHT22;49320;52.512;13.448;2022-09-09T07:31:38;20.60;86.10
63219;DHT22;49320;52.512;13.448;2022-09-09T07:34:06;20.70;85.60
63219;DHT22;49320;52.512;13.448;2022-09-09T07:36:36;20.70;85.70
63219;DHT22;49320;52.512;13.448;2022-09-09T07:39:07;20.80;85.20
63219;DHT22;49320;52.512;13.448;2022-09-09T07:41:44;20.90;85.10
63219;DHT22;49320;52.512;13.448;2022-09-09T07:44:15;20.90;85.10
63219;DHT22;49320;52.512;13.448;2022-09-09T07:46:43;21.00;84.60
63219;DHT22;49320;52.512;13.448;2022-09-09T07:49:12;21.10;84.60
63219;DHT22;49320;52.512;13.448;2022-09-09T07:51:43;21.20;84.60
63219;DHT22;49320;52.512;13.448;2022-09-09T07:54:13;21.20;84.30
63219;DHT22;49320;52.512;13.448;2022-09-09T07:56:41;21.30;83.90
63219;DHT22;49320;52.512;13.448;2022-09-09T07:59:09;21.40;83.50
63219;DHT22;49320;52.512;13.448;2022-09-09T08:01:39;21.60;83.00
63219;DHT22;49320;52.512;13.448;2022-09-09T08:04:12;21.60;82.70
63219;DHT22;49320;52.512;13.448;2022-09-09T08:06:49;21.70;82.10
63219;DHT22;49320;52.512;13.448;2022-09-09T08:09:19;21.80;81.60
63219;DHT22;49320;52.512;13.448;2022-09-09T08:11:47;21.90;81.20
63219;DHT22;49320;52.512;13.448;2022-09-09T08:14:14;22.00;80.50
63219;DHT22;49320;52.512;13.448;2022-09-09T08:16:44;22.10;80.00
63219;DHT22;49320;52.512;13.448;2022-09-09T08:19:13;22.50;79.80
63219;DHT22;49320;52.512;13.448;2022-09-09T08:21:42;22.20;79.60
63219;DHT22;49320;52.512;13.448;2022-09-09T08:24:10;22.30;79.40
63219;DHT22;49320;52.512;13.448;2022-09-09T08:26:40;22.30;79.40
63219;DHT22;49320;52.512;13.448;2022-09-09T08:29:10;22.20;79.00
63219;DHT22;49320;52.512;13.448;2022-09-09T08:31:43;22.40;78.90
63219;DHT22;49320;52.512;13.448;2022-09-09T08:34:15;22.40;78.80
63219;DHT22;49320;52.512;13.448;2022-09-09T08:36:43;22.30;78.90
63219;DHT22;49320;52.512;13.448;2022-09-09T08:39:13;22.30;79.50
63219;DHT22;49320;52.512;13.448;2022-09-09T08:44:45;22.30;78.30
63219;DHT22;49320;52.512;13.448;2022-09-09T08:50:56;22.30;78.40
63219;DHT22;49320;52.512;13.448;2022-09-09T08:58:13;22.30;78.10
63219;DHT22;49320;52.512;13.448;2022-09-09T09:00:56;22.30;78.50
63219;DHT22;49320;52.512;13.448;2022-09-09T09:03:52;22.40;77.70
63219;DHT22;49320;52.512;13.448;2022-09-09T09:09:11;22.50;78.00
63219;DHT22;49320;52.512;13.448;2022-09-09T09:11:55;22.50;77.70
63219;DHT22;49320;52.512;13.448;2022-09-09T09:14:33;22.60;76.80
63219;DHT22;49320;52.512;13.448;2022-09-09T09:19:48;22.80;75.30
63219;DHT22;49320;52.512;13.448;2022-09-09T09:27:51;23.20;74.60
63219;DHT22;49320;52.512;13.448;2022-09-09T09:30:35;23.40;74.90
63219;DHT22;49320;52.512;13.448;2022-09-09T09:35:50;23.70;73.10
63219;DHT22;49320;52.512;13.448;2022-09-09T09:38:24;23.90;73.90
63219;DHT22;49320;52.512;13.448;2022-09-09T09:41:14;24.10;72.00
63219;DHT22;49320;52.512;13.448;2022-09-09T09:43:41;24.20;72.80
63219;DHT22;49320;52.512;13.448;2022-09-09T09:46:22;24.30;71.60
63219;DHT22;49320;52.512;13.448;2022-09-09T09:49:09;24.40;69.80
63219;DHT22;49320;52.512;13.448;2022-09-09T09:51:36;24.40;69.10
63219;DHT22;49320;52.512;13.448;2022-09-09T09:56:40;24.50;70.00
63219;DHT22;49320;52.512;13.448;2022-09-09T10:04:44;24.50;68.90
63219;DHT22;49320;52.512;13.448;2022-09-09T10:07:20;24.50;69.80
63219;DHT22;49320;52.512;13.448;2022-09-09T10:09:52;24.50;69.30
63219;DHT22;49320;52.512;13.448;2022-09-09T10:15:14;24.50;68.10
63219;DHT22;49320;52.512;13.448;2022-09-09T10:20:54;24.50;67.60
63219;DHT22;49320;52.512;13.448;2022-09-09T10:26:35;24.50;67.40
63219;DHT22;49320;52.512;13.448;2022-09-09T10:29:36;24.50;67.60
63219;DHT22;49320;52.512;13.448;2022-09-09T10:32:40;24.40;68.50
63219;DHT22;49320;52.512;13.448;2022-09-09T10:35:53;24.50;67.50
63219;DHT22;49320;52.512;13.448;2022-09-09T10:38:40;24.50;67.10
63219;DHT22;49320;52.512;13.448;2022-09-09T10:44:05;24.60;67.70
63219;DHT22;49320;52.512;13.448;2022-09-09T10:52:33;24.60;66.60
63219;DHT22;49320;52.512;13.448;2022-09-09T10:57:48;24.60;67.00
63219;DHT22;49320;52.512;13.448;2022-09-09T11:00:24;24.70;67.20
63219;DHT22;49320;52.512;13.448;2022-09-09T11:03:00;24.70;66.90
63219;DHT22;49320;52.512;13.448;2022-09-09T11:05:45;24.70;67.20
63219;DHT22;49320;52.512;13.448;2022-09-09T11:08:21;24.80;66.40
63219;DHT22;49320;52.512;13.448;2022-09-09T11:16:26;25.00;66.50
63219;DHT22;49320;52.512;13.448;2022-09-09T11:19:17;25.10;65.80
63219;DHT22;49320;52.512;13.448;2022-09-09T11:21:52;25.10;65.10
63219;DHT22;49320;52.512;13.448;2022-09-09T11:24:28;25.20;65.70
63219;DHT22;49320;52.512;13.448;2022-09-09T11:27:21;25.20;65.60
63219;DHT22;49320;52.512;13.448;2022-09-09T11:30:04;25.30;64.60
63219;DHT22;49320;52.512;13.448;2022-09-09T11:33:21;25.30;63.80
63219;DHT22;49320;52.512;13.448;2022-09-09T11:38:48;25.40;64.00
63219;DHT22;49320;52.512;13.448;2022-09-09T11:41:20;25.40;64.00
63219;DHT22;49320;52.512;13.448;2022-09-09T11:43:52;25.60;64.50
63219;DHT22;49320;52.512;13.448;2022-09-09T11:46:33;25.50;63.90
63219;DHT22;49320;52.512;13.448;2022-09-09T11:49:05;25.60;63.10
63219;DHT22;49320;52.512;13.448;2022-09-09T11:51:34;25.60;63.70
63219;DHT22;49320;52.512;13.448;2022-09-09T11:54:31;25.70;63.60
63219;DHT22;49320;52.512;13.448;2022-09-09T11:56:59;25.70;61.60
63219;DHT22;49320;52.512;13.448;2022-09-09T11:59:33;25.00;62.50
63219;DHT22;49320;52.512;13.448;2022-09-09T12:02:14;25.80;62.50
63219;DHT22;49320;52.512;13.448;2022-09-09T12:10:04;25.90;61.80
63219;DHT22;49320;52.512;13.448;2022-09-09T12:12:37;25.90;61.80
63219;DHT22;49320;52.512;13.448;2022-09-09T12:17:50;26.00;62.20
63219;DHT22;49320;52.512;13.448;2022-09-09T12:23:52;26.10;60.40
63219;DHT22;49320;52.512;13.448;2022-09-09T12:29:51;26.20;60.70
63219;DHT22;49320;52.512;13.448;2022-09-09T12:32:25;26.20;59.40
63219;DHT22;49320;52.512;13.448;2022-09-09T12:37:54;26.20;60.40
63219;DHT22;49320;52.512;13.448;2022-09-09T12:40:33;26.20;60.00
63219;DHT22;49320;52.512;13.448;2022-09-09T12:43:22;26.20;60.00
63219;DHT22;49320;52.512;13.448;2022-09-09T12:46:03;26.20;58.90
63219;DHT22;49320;52.512;13.448;2022-09-09T12:48:41;26.10;59.80
63219;DHT22;49320;52.512;13.448;2022-09-09T12:51:28;26.10;59.70
63219;DHT22;49320;52.512;13.448;2022-09-09T12:53:58;26.10;59.20
63219;DHT22;49320;52.512;13.448;2022-09-09T12:56:28;26.10;60.00
63219;DHT22;49320;52.512;13.448;2022-09-09T12:58:58;26.00;60.00
63219;DHT22;49320;52.512;13.448;2022-09-09T13:01:28;26.10;60.00
63219;DHT22;49320;52.512;13.448;2022-09-09T13:03:57;26.10;59.90
63219;DHT22;49320;52.512;13.448;2022-09-09T13:06:29;26.10;60.00
63219;DHT22;49320;52.512;13.448;2022-09-09T13:09:00;26.20;59.20
63219;DHT22;49320;52.512;13.448;2022-09-09T13:11:39;26.20;59.20
63219;DHT22;49320;52.512;13.448;2022-09-09T13:14:18;26.30;58.90
63219;DHT22;49320;52.512;13.448;2022-09-09T13:17:02;26.30;59.10
63219;DHT22;49320;52.512;13.448;2022-09-09T13:19:36;26.40;59.00
63219;DHT22;49320;52.512;13.448;2022-09-09T13:25:26;26.50;58.50
63219;DHT22;49320;52.512;13.448;2022-09-09T13:27:59;26.50;58.00
63219;DHT22;49320;52.512;13.448;2022-09-09T13:30:35;26.60;58.50
63219;DHT22;49320;52.512;13.448;2022-09-09T13:33:28;26.60;58.10
63219;DHT22;49320;52.512;13.448;2022-09-09T13:36:07;26.70;58.30
63219;DHT22;49320;52.512;13.448;2022-09-09T13:38:38;26.70;57.10
63219;DHT22;49320;52.512;13.448;2022-09-09T13:41:24;26.70;58.30
63219;DHT22;49320;52.512;13.448;2022-09-09T13:44:03;26.80;57.50
63219;DHT22;49320;52.512;13.448;2022-09-09T13:46:39;26.80;57.30
63219;DHT22;49320;52.512;13.448;2022-09-09T13:51:43;26.90;57.00
63219;DHT22;49320;52.512;13.448;2022-09-09T13:54:14;27.00;56.40
63219;DHT22;49320;52.512;13.448;2022-09-09T13:56:44;27.00;57.00
63219;DHT22;49320;52.512;13.448;2022-09-09T13:59:13;27.10;56.90
63219;DHT22;49320;52.512;13.448;2022-09-09T14:01:42;27.20;56.70
63219;DHT22;49320;52.512;13.448;2022-09-09T14:04:09;27.20;56.40
63219;DHT22;49320;52.512;13.448;2022-09-09T14:06:37;27.30;56.30
63219;DHT22;49320;52.512;13.448;2022-09-09T14:09:06;27.30;55.80
63219;DHT22;49320;52.512;13.448;2022-09-09T14:11:38;27.40;55.90
63219;DHT22;49320;52.512;13.448;2022-09-09T14:14:05;27.40;55.80
63219;DHT22;49320;52.512;13.448;2022-09-09T14:16:31;27.40;56.40
63219;DHT22;49320;52.512;13.448;2022-09-09T14:18:59;27.40;55.70
63219;DHT22;49320;52.512;13.448;2022-09-09T14:21:27;27.40;55.60
63219;DHT22;49320;52.512;13.448;2022-09-09T14:23:54;27.40;55.70
63219;DHT22;49320;52.512;13.448;2022-09-09T14:26:22;27.30;55.60
63219;DHT22;49320;52.512;13.448;2022-09-09T14:28:50;27.40;55.80
63219;DHT22;49320;52.512;13.448;2022-09-09T14:31:22;27.30;55.80
63219;DHT22;49320;52.512;13.448;2022-09-09T14:33:51;27.40;56.00
63219;DHT22;49320;52.512;13.448;2022-09-09T14:36:18;27.50;56.00
63219;DHT22;49320;52.512;13.448;2022-09-09T14:38:45;27.50;56.00
63219;DHT22;49320;52.512;13.448;2022-09-09T14:41:15;27.50;55.70
63219;DHT22;49320;52.512;13.448;2022-09-09T14:43:44;27.60;55.50
63219;DHT22;49320;52.512;13.448;2022-09-09T14:46:14;27.60;55.70
63219;DHT22;49320;52.512;13.448;2022-09-09T14:48:43;27.60;55.70
63219;DHT22;49320;52.512;13.448;2022-09-09T14:51:22;27.70;56.00
63219;DHT22;49320;52.512;13.448;2022-09-09T14:53:52;27.70;54.80
63219;DHT22;49320;52.512;13.448;2022-09-09T14:56:21;27.60;55.30
63219;DHT22;49320;52.512;13.448;2022-09-09T14:58:50;27.50;55.20
63219;DHT22;49320;52.512;13.448;2022-09-09T15:01:18;27.50;55.20
63219;DHT22;49320;52.512;13.448;2022-09-09T15:04:02;27.50;55.20
63219;DHT22;49320;52.512;13.448;2022-09-09T15:06:32;27.30;54.90
63219;DHT22;49320;52.512;13.448;2022-09-09T15:09:00;27.20;55.20
63219;DHT22;49320;52.512;13.448;2022-09-09T15:11:30;27.10;55.10
63219;DHT22;49320;52.512;13.448;2022-09-09T15:14:00;27.10;55.10
63219;DHT22;49320;52.512;13.448;2022-09-09T15:16:28;27.10;55.00
63219;DHT22;49320;52.512;13.448;2022-09-09T15:18:57;27.00;55.30
63219;DHT22;49320;52.512;13.448;2022-09-09T15:21:28;27.00;55.30
63219;DHT22;49320;52.512;13.448;2022-09-09T15:23:57;26.90;55.10
63219;DHT22;49320;52.512;13.448;2022-09-09T15:26:25;26.80;54.70
63219;DHT22;49320;52.512;13.448;2022-09-09T15:28:53;26.80;54.60
63219;DHT22;49320;52.512;13.448;2022-09-09T15:31:22;26.90;54.30
63219;DHT22;49320;52.512;13.448;2022-09-09T15:33:58;26.80;54.00
63219;DHT22;49320;52.512;13.448;2022-09-09T15:36:37;26.90;53.60
63219;DHT22;49320;52.512;13.448;2022-09-09T15:39:08;26.90;52.70
63219;DHT22;49320;52.512;13.448;2022-09-09T15:41:39;27.00;53.10
63219;DHT22;49320;52.512;13.448;2022-09-09T15:44:07;27.00;53.00
63219;DHT22;49320;52.512;13.448;2022-09-09T15:47:00;27.00;53.10
63219;DHT22;49320;52.512;13.448;2022-09-09T15:49:27;26.90;51.90
63219;DHT22;49320;52.512;13.448;2022-09-09T15:51:56;26.90;53.00
63219;DHT22;49320;52.512;13.448;2022-09-09T15:54:25;26.80;52.80
63219;DHT22;49320;52.512;13.448;2022-09-09T15:56:55;26.80;52.60
63219;DHT22;49320;52.512;13.448;2022-09-09T15:59:24;26.80;53.00
63219;DHT22;49320;52.512;13.448;2022-09-09T16:01:54;26.80;53.20
63219;DHT22;49320;52.512;13.448;2022-09-09T16:04:23;26.70;53.10
63219;DHT22;49320;52.512;13.448;2022-09-09T16:06:56;26.60;53.00
63219;DHT22;49320;52.512;13.448;2022-09-09T16:09:26;26.60;52.80
63219;DHT22;49320;52.512;13.448;2022-09-09T16:11:56;26.50;53.00
63219;DHT22;49320;52.512;13.448;2022-09-09T16:14:25;26.40;53.00
63219;DHT22;49320;52.512;13.448;2022-09-09T16:16:52;26.40;53.10
63219;DHT22;49320;52.512;13.448;2022-09-09T16:19:20;26.30;53.10
63219;DHT22;49320;52.512;13.448;2022-09-09T16:21:48;26.30;53.20
63219;DHT22;49320;52.512;13.448;2022-09-09T16:24:18;26.30;53.40
63219;DHT22;49320;52.512;13.448;2022-09-09T16:26:50;26.20;53.20
63219;DHT22;49320;52.512;13.448;2022-09-09T16:29:19;26.20;53.10
63219;DHT22;49320;52.512;13.448;2022-09-09T16:31:49;26.20;53.50
63219;DHT22;49320;52.512;13.448;2022-09-09T16:34:18;26.20;53.70
63219;DHT22;49320;52.512;13.448;2022-09-09T16:36:45;26.20;53.70
63219;DHT22;49320;52.512;13.448;2022-09-09T16:39:17;26.10;53.70
63219;DHT22;49320;52.512;13.448;2022-09-09T16:41:46;26.10;53.70
63219;DHT22;49320;52.512;13.448;2022-09-09T16:44:15;26.00;53.70
63219;DHT22;49320;52.512;13.448;2022-09-09T16:46:45;25.90;53.60
63219;DHT22;49320;52.512;13.448;2022-09-09T16:49:15;25.90;53.70
63219;DHT22;49320;52.512;13.448;2022-09-09T16:51:47;25.90;53.80
63219;DHT22;49320;52.512;13.448;2022-09-09T16:54:16;25.80;53.80
63219;DHT22;49320;52.512;13.448;2022-09-09T16:56:45;25.70;53.80
63219;DHT22;49320;52.512;13.448;2022-09-09T16:59:17;25.70;54.00
63219;DHT22;49320;52.512;13.448;2022-09-09T17:01:47;25.60;54.10
63219;DHT22;49320;52.512;13.448;2022-09-09T17:04:19;25.60;54.40
63219;DHT22;49320;52.512;13.448;2022-09-09T17:06:53;25.50;54.50
63219;DHT22;49320;52.512;13.448;2022-09-09T17:09:23;25.40;54.70
63219;DHT22;49320;52.512;13.448;2022-09-09T17:11:55;25.30;54.90
63219;DHT22;49320;52.512;13.448;2022-09-09T17:14:22;25.30;55.00
63219;DHT22;49320;52.512;13.448;2022-09-09T17:16:50;25.20;55.20
63219;DHT22;49320;52.512;13.448;2022-09-09T17:19:18;25.10;55.40
63219;DHT22;49320;52.512;13.448;2022-09-09T17:21:45;25.10;55.60
63219;DHT22;49320;52.512;13.448;2022-09-09T17:24:33;25.00;55.80
63219;DHT22;49320;52.512;13.448;2022-09-09T17:27:00;24.90;56.00
63219;DHT22;49320;52.512;13.448;2022-09-09T17:29:28;24.80;56.20
63219;DHT22;49320;52.512;13.448;2022-09-09T17:31:55;24.80;56.30
63219;DHT22;49320;52.512;13.448;2022-09-09T17:34:22;24.70;56.30
63219;DHT22;49320;52.512;13.448;2022-09-09T17:36:50;24.60;56.10
63219;DHT22;49320;52.512;13.448;2022-09-09T17:39:17;24.60;56.10
63219;DHT22;49320;52.512;13.448;2022-09-09T17:41:44;24.50;56.10
63219;DHT22;49320;52.512;13.448;2022-09-09T17:44:11;24.40;55.90
63219;DHT22;49320;52.512;13.448;2022-09-09T17:46:40;24.30;55.80
63219;DHT22;49320;52.512;13.448;2022-09-09T17:49:11;24.10;55.70
63219;DHT22;49320;52.512;13.448;2022-09-09T17:51:40;24.10;55.90
63219;DHT22;49320;52.512;13.448;2022-09-09T17:54:11;24.00;56.00